Time;durP1;ratioP1;P1;durP2;ratioP2;P2;SDS_P1;SDS_P2;PMS_P1;PMS_P2;Temp;Humidity;BMP_temperature;BMP_pressure;BME280_temperature;BME280_humidity;BME280_pressure;Samples;Min_cycle;Max_cycle;Signal;HPM_P1;HPM_P2
2022/11/27 00:02:18;;;;;;;16.03;6.17;;;8.30;99.90;;;;;;5094562;28;20201;-71
2022/11/27 00:04:44;;;;;;;14.27;6.30;;;8.30;99.90;;;;;;5093340;28;20175;-71
2022/11/27 00:07:10;;;;;;;12.40;6.10;;;8.30;99.90;;;;;;5094345;28;20171;-71
2022/11/27 00:09:35;;;;;;;15.10;6.40;;;8.40;99.90;;;;;;5093463;28;20172;-71
2022/11/27 00:12:04;;;;;;;13.57;6.07;;;8.40;99.90;;;;;;5094420;28;20179;-71
2022/11/27 00:14:29;;;;;;;16.83;6.03;;;8.30;99.90;;;;;;5094257;28;20196;-71
2022/11/27 00:16:56;;;;;;;15.30;5.63;;;8.40;99.90;;;;;;5075990;28;20191;-70
2022/11/27 00:19:22;;;;;;;16.60;5.60;;;8.40;99.90;;;;;;5094365;28;20263;-71
2022/11/27 00:21:47;;;;;;;13.17;5.40;;;8.50;99.90;;;;;;5094001;28;20263;-72
2022/11/27 00:24:13;;;;;;;14.27;6.20;;;8.40;99.90;;;;;;5093802;28;20205;-71
2022/11/27 00:26:41;;;;;;;12.77;5.77;;;8.30;99.90;;;;;;5094226;28;20168;-72
2022/11/27 00:29:07;;;;;;;17.03;5.73;;;8.30;99.90;;;;;;5093931;28;20180;-71
2022/11/27 00:31:36;;;;;;;15.27;5.60;;;8.30;99.90;;;;;;5094225;28;20172;-70
2022/11/27 00:34:03;;;;;;;14.77;5.47;;;8.30;99.90;;;;;;5093853;28;20239;-70
2022/11/27 00:36:38;;;;;;;15.30;5.40;;;8.30;99.90;;;;;;5093824;28;20663;-70
2022/11/27 00:39:04;;;;;;;14.23;5.23;;;8.30;99.90;;;;;;5093691;28;20171;-71
2022/11/27 00:41:33;;;;;;;11.63;4.87;;;8.30;99.90;;;;;;5093945;28;20172;-71
2022/11/27 00:43:58;;;;;;;11.47;4.63;;;8.40;99.90;;;;;;5093889;28;20168;-70
2022/11/27 00:46:27;;;;;;;17.27;5.10;;;8.40;99.90;;;;;;5093957;28;20179;-71
2022/11/27 00:48:57;;;;;;;17.70;4.80;;;8.40;99.90;;;;;;5093746;28;20265;-71
2022/11/27 00:51:27;;;;;;;10.23;5.10;;;8.40;99.90;;;;;;5093832;28;20171;-71
2022/11/27 00:53:53;;;;;;;14.53;5.77;;;8.40;99.90;;;;;;5093343;28;20182;-71
2022/11/27 00:56:23;;;;;;;15.73;5.00;;;8.40;99.90;;;;;;5093653;28;20251;-71
2022/11/27 00:58:49;;;;;;;12.73;5.33;;;8.40;99.90;;;;;;5093698;28;20179;-71
2022/11/27 01:01:18;;;;;;;19.07;5.63;;;8.40;99.90;;;;;;5093577;28;20531;-72
2022/11/27 01:03:44;;;;;;;11.47;5.10;;;8.40;99.90;;;;;;5093673;28;20202;-70
2022/11/27 01:06:10;;;;;;;13.30;4.53;;;8.50;99.90;;;;;;5093561;28;20174;-71
2022/11/27 01:08:35;;;;;;;13.00;4.67;;;8.40;99.90;;;;;;5093295;28;20255;-71
2022/11/27 01:11:01;;;;;;;13.37;4.70;;;8.30;99.90;;;;;;5093523;28;20172;-70
2022/11/27 01:13:36;;;;;;;15.70;4.27;;;8.40;99.90;;;;;;5093471;28;20260;-71
2022/11/27 01:16:05;;;;;;;10.73;4.30;;;8.40;99.90;;;;;;5093427;28;20207;-71
2022/11/27 01:18:31;;;;;;;10.00;4.30;;;8.40;99.90;;;;;;5093490;28;20175;-71
2022/11/27 01:20:57;;;;;;;11.83;4.40;;;8.40;99.90;;;;;;5093187;28;20175;-70
2022/11/27 01:23:24;;;;;;;10.00;4.00;;;8.40;99.90;;;;;;5093095;28;20176;-71
2022/11/27 01:25:52;;;;;;;10.20;4.23;;;8.40;99.90;;;;;;5093135;28;20175;-71
2022/11/27 01:28:18;;;;;;;7.87;3.47;;;8.40;99.90;;;;;;5093249;28;20203;-70
2022/11/27 01:30:43;;;;;;;8.80;3.57;;;8.30;99.90;;;;;;5093251;28;20168;-70
2022/11/27 01:33:09;;;;;;;9.23;4.03;;;8.30;99.90;;;;;;5093024;28;20241;-71
2022/11/27 01:35:37;;;;;;;7.33;3.70;;;8.30;99.90;;;;;;5093058;28;20219;-71
2022/11/27 01:38:03;;;;;;;9.53;4.07;;;8.30;99.90;;;;;;5092870;28;20190;-72
2022/11/27 01:40:29;;;;;;;8.20;4.00;;;8.30;99.90;;;;;;5093091;28;20639;-70
2022/11/27 01:42:55;;;;;;;8.87;3.43;;;8.30;99.90;;;;;;5093066;28;20178;-71
2022/11/27 01:45:21;;;;;;;8.77;3.40;;;8.30;99.90;;;;;;5092959;28;20578;-70
2022/11/27 01:47:56;;;;;;;9.73;3.53;;;8.30;99.90;;;;;;5093025;28;20168;-70
2022/11/27 01:50:28;;;;;;;10.57;4.07;;;8.30;99.90;;;;;;5092459;28;20199;-70
2022/11/27 01:53:01;;;;;;;11.97;3.90;;;8.40;99.90;;;;;;5092967;28;20175;-70
2022/11/27 01:55:34;;;;;;;8.50;3.80;;;8.40;99.90;;;;;;5092715;28;20280;-71
2022/11/27 01:58:11;;;;;;;10.93;3.80;;;8.30;99.90;;;;;;5092919;28;20252;-71
2022/11/27 02:00:37;;;;;;;6.20;3.57;;;8.30;99.90;;;;;;5093074;28;20237;-71
2022/11/27 02:03:03;;;;;;;5.67;3.63;;;8.30;99.90;;;;;;5092755;28;20203;-70
2022/11/27 02:05:29;;;;;;;8.83;4.10;;;8.30;99.90;;;;;;5092298;28;20199;-70
2022/11/27 02:07:57;;;;;;;13.77;4.40;;;8.30;99.90;;;;;;5092720;28;20172;-71
2022/11/27 02:10:41;;;;;;;11.20;3.77;;;8.40;99.90;;;;;;5092969;28;20222;-70
2022/11/27 02:13:31;;;;;;;8.60;4.00;;;8.40;99.90;;;;;;5074781;28;20534;-71
2022/11/27 02:16:26;;;;;;;5.53;3.77;;;8.40;99.90;;;;;;5092669;28;20759;-71
2022/11/27 02:18:55;;;;;;;8.17;3.80;;;8.30;99.90;;;;;;5091571;28;20539;-70
2022/11/27 02:21:34;;;;;;;7.57;3.60;;;8.30;99.90;;;;;;5092535;28;20194;-70
2022/11/27 02:24:29;;;;;;;7.87;3.80;;;8.30;99.90;;;;;;5092857;28;20217;-71
2022/11/27 02:27:03;;;;;;;7.33;3.50;;;8.30;99.90;;;;;;5056334;28;20584;-71
2022/11/27 02:29:33;;;;;;;10.17;3.73;;;8.40;99.90;;;;;;5092771;28;20171;-71
2022/11/27 02:32:20;;;;;;;7.40;3.63;;;8.30;99.90;;;;;;5092386;28;20520;-70
2022/11/27 02:34:49;;;;;;;6.37;3.43;;;8.30;99.90;;;;;;5095968;28;20214;-70
2022/11/27 02:37:25;;;;;;;6.70;3.23;;;8.30;99.90;;;;;;5078155;28;20168;-71
2022/11/27 02:39:56;;;;;;;6.73;3.20;;;8.30;99.90;;;;;;5096401;28;20221;-70
2022/11/27 02:42:23;;;;;;;6.63;3.30;;;8.40;99.90;;;;;;5078110;28;20233;-71
2022/11/27 02:44:55;;;;;;;6.20;3.40;;;8.40;99.90;;;;;;5096075;28;20180;-70
2022/11/27 02:47:21;;;;;;;3.77;2.93;;;8.50;99.90;;;;;;5096088;28;20175;-71
2022/11/27 02:49:50;;;;;;;6.60;3.20;;;8.40;99.90;;;;;;5095709;28;20245;-70
2022/11/27 02:52:18;;;;;;;7.17;2.93;;;8.50;99.90;;;;;;5096017;28;20267;-70
2022/11/27 02:54:47;;;;;;;9.10;3.20;;;8.60;99.90;;;;;;5095786;28;20219;-69
2022/11/27 02:57:13;;;;;;;7.23;3.27;;;8.50;99.90;;;;;;5095830;28;20172;-70
2022/11/27 02:59:43;;;;;;;5.73;3.00;;;8.50;99.90;;;;;;5096047;28;20183;-69
2022/11/27 03:02:14;;;;;;;6.00;2.90;;;8.60;99.90;;;;;;5095932;28;20172;-70
2022/11/27 03:04:46;;;;;;;4.20;2.67;;;8.50;99.90;;;;;;5095552;28;20176;-70
2022/11/27 03:07:25;;;;;;;5.77;2.90;;;8.50;99.90;;;;;;5095833;28;20765;-71
2022/11/27 03:09:57;;;;;;;7.47;3.37;;;8.50;99.90;;;;;;5095752;28;20259;-71
2022/11/27 03:12:23;;;;;;;8.47;3.13;;;8.60;99.90;;;;;;5095531;28;20171;-70
2022/11/27 03:14:48;;;;;;;5.37;3.30;;;8.60;99.90;;;;;;5095503;28;20211;-70
2022/11/27 03:17:39;;;;;;;6.47;3.47;;;8.60;99.90;;;;;;5095389;28;20168;-71
2022/11/27 03:20:25;;;;;;;6.67;3.20;;;8.60;99.90;;;;;;5095532;28;20251;-71
2022/11/27 03:22:55;;;;;;;7.87;3.10;;;8.60;99.90;;;;;;5077423;28;20534;-70
2022/11/27 03:25:22;;;;;;;4.80;2.90;;;8.70;99.90;;;;;;5095292;28;20168;-70
2022/11/27 03:27:54;;;;;;;6.17;2.73;;;8.60;99.90;;;;;;5095547;28;20258;-70
2022/11/27 03:30:19;;;;;;;8.60;2.90;;;8.60;99.90;;;;;;5095460;28;20167;-70
2022/11/27 03:32:45;;;;;;;5.47;3.00;;;8.60;99.90;;;;;;5094484;28;20223;-69
2022/11/27 03:35:15;;;;;;;7.77;3.20;;;8.60;99.90;;;;;;5077001;28;20671;-69
2022/11/27 03:37:41;;;;;;;4.43;2.70;;;8.60;99.90;;;;;;5095024;28;20217;-70
2022/11/27 03:40:08;;;;;;;5.70;3.03;;;8.50;99.90;;;;;;5095011;28;20251;-70
2022/11/27 03:42:57;;;;;;;7.70;3.67;;;8.50;99.90;;;;;;5095065;28;20276;-69
2022/11/27 03:45:28;;;;;;;7.17;3.63;;;8.60;99.90;;;;;;5093907;28;20224;-71
2022/11/27 03:48:05;;;;;;;5.17;3.10;;;8.60;99.90;;;;;;5094600;28;20168;-70
2022/11/27 03:50:39;;;;;;;4.83;2.80;;;8.60;99.90;;;;;;5094841;28;20221;-70
2022/11/27 03:53:24;;;;;;;5.73;3.27;;;8.70;99.90;;;;;;5094674;28;20213;-70
2022/11/27 03:56:12;;;;;;;5.13;3.40;;;8.70;99.90;;;;;;5094542;28;20538;-69
2022/11/27 03:58:53;;;;;;;5.27;3.30;;;8.70;99.90;;;;;;5075992;28;20176;-69
2022/11/27 04:01:23;;;;;;;7.23;3.57;;;8.70;99.90;;;;;;5094466;28;20164;-70
2022/11/27 04:03:48;;;;;;;5.87;3.20;;;8.80;99.90;;;;;;5094529;28;20171;-70
2022/11/27 04:06:14;;;;;;;6.00;3.27;;;8.80;99.90;;;;;;5094460;28;20232;-70
2022/11/27 04:08:40;;;;;;;6.73;3.13;;;8.80;99.90;;;;;;5094420;28;20172;-70
2022/11/27 04:11:06;;;;;;;6.83;3.47;;;8.80;99.90;;;;;;5094399;28;20168;-70
2022/11/27 04:13:31;;;;;;;3.87;2.67;;;8.80;99.90;;;;;;5075971;28;20199;-69
2022/11/27 04:16:00;;;;;;;7.43;3.47;;;8.70;99.90;;;;;;5094018;28;20252;-70
2022/11/27 04:18:26;;;;;;;6.23;3.10;;;8.60;99.90;;;;;;5094243;28;20164;-71
2022/11/27 04:20:52;;;;;;;5.47;3.00;;;8.70;99.90;;;;;;5094178;28;20641;-69
2022/11/27 04:23:18;;;;;;;5.23;3.30;;;8.60;99.90;;;;;;5093641;28;20168;-70
2022/11/27 04:25:43;;;;;;;7.20;3.43;;;8.60;99.90;;;;;;5094095;28;20180;-70
2022/11/27 04:28:09;;;;;;;5.63;3.10;;;8.60;99.90;;;;;;5094175;28;20216;-70
2022/11/27 04:30:34;;;;;;;7.73;3.33;;;8.50;99.90;;;;;;5093296;28;20225;-70
2022/11/27 04:33:00;;;;;;;5.60;3.40;;;8.50;99.90;;;;;;5093671;28;20216;-70
2022/11/27 04:35:26;;;;;;;7.17;3.47;;;8.50;99.90;;;;;;5094015;28;20211;-70
2022/11/27 04:37:57;;;;;;;6.23;3.20;;;8.50;99.90;;;;;;5093775;28;20168;-70
2022/11/27 04:40:23;;;;;;;6.20;3.17;;;8.50;99.90;;;;;;5093914;28;20183;-71
2022/11/27 04:42:52;;;;;;;9.27;3.83;;;8.60;99.90;;;;;;5093878;28;20175;-71
2022/11/27 04:45:18;;;;;;;5.47;3.13;;;8.50;99.90;;;;;;5093087;28;20175;-70
2022/11/27 04:47:43;;;;;;;5.70;3.47;;;8.50;99.90;;;;;;5093692;28;20179;-69
2022/11/27 04:50:09;;;;;;;6.50;3.40;;;8.50;99.90;;;;;;5093631;28;20191;-69
2022/11/27 04:52:35;;;;;;;5.30;3.30;;;8.50;99.90;;;;;;5093583;28;20174;-70
2022/11/27 04:55:04;;;;;;;6.83;3.13;;;8.40;99.90;;;;;;5093245;28;20207;-69
2022/11/27 04:57:30;;;;;;;5.00;3.53;;;8.40;99.90;;;;;;5093609;28;20183;-69
2022/11/27 04:59:56;;;;;;;8.13;3.43;;;8.40;99.90;;;;;;5093165;28;20169;-71
2022/11/27 05:02:21;;;;;;;6.37;3.50;;;8.30;99.90;;;;;;5093936;28;20590;-69
2022/11/27 05:04:47;;;;;;;7.43;3.63;;;8.40;99.90;;;;;;5093225;28;20182;-70
2022/11/27 05:07:15;;;;;;;6.37;3.60;;;8.40;99.90;;;;;;5093229;28;20697;-70
2022/11/27 05:09:41;;;;;;;7.27;3.83;;;8.30;99.90;;;;;;5093420;28;20206;-69
2022/11/27 05:12:06;;;;;;;8.43;3.83;;;8.30;99.90;;;;;;5093258;28;20176;-69
2022/11/27 05:14:32;;;;;;;9.07;3.70;;;8.20;99.90;;;;;;5092857;28;20184;-69
2022/11/27 05:16:58;;;;;;;9.63;3.50;;;8.20;99.90;;;;;;5092996;28;20195;-70
2022/11/27 05:19:29;;;;;;;7.80;3.73;;;8.10;99.90;;;;;;5093194;28;20176;-71
2022/11/27 05:21:55;;;;;;;9.20;3.90;;;8.10;99.90;;;;;;5093344;28;20187;-69
2022/11/27 05:24:23;;;;;;;7.43;4.10;;;8.10;99.90;;;;;;5093053;28;20176;-71
2022/11/27 05:26:48;;;;;;;9.87;4.10;;;8.10;99.90;;;;;;5093015;28;20168;-71
2022/11/27 05:29:15;;;;;;;6.40;3.80;;;8.10;99.90;;;;;;5092676;28;20187;-70
2022/11/27 05:31:41;;;;;;;7.03;3.63;;;8.10;99.90;;;;;;5093038;28;20532;-70
2022/11/27 05:34:09;;;;;;;6.43;3.30;;;8.10;99.90;;;;;;5092432;28;20223;-70
2022/11/27 05:36:36;;;;;;;5.87;3.87;;;8.10;99.90;;;;;;5092577;28;20209;-70
2022/11/27 05:39:03;;;;;;;5.70;4.00;;;8.10;99.90;;;;;;5092863;28;20171;-70
2022/11/27 05:41:32;;;;;;;6.10;3.80;;;8.10;99.90;;;;;;5093030;28;20204;-69
2022/11/27 05:43:57;;;;;;;7.00;3.60;;;8.10;99.90;;;;;;5092274;28;20168;-69
2022/11/27 05:46:26;;;;;;;8.53;3.90;;;8.00;99.90;;;;;;5092324;28;20190;-71
2022/11/27 05:48:51;;;;;;;9.57;4.20;;;8.10;99.90;;;;;;5092609;28;20188;-70
2022/11/27 05:51:17;;;;;;;5.67;3.70;;;8.00;99.90;;;;;;5092752;28;20628;-70
2022/11/27 05:53:43;;;;;;;6.87;3.70;;;8.00;99.90;;;;;;5092841;28;20612;-69
2022/11/27 05:56:12;;;;;;;5.50;3.43;;;8.00;99.90;;;;;;5092449;28;20220;-70
2022/11/27 05:58:38;;;;;;;7.00;3.80;;;8.00;99.90;;;;;;5092151;28;20180;-70
2022/11/27 06:01:05;;;;;;;4.70;3.77;;;8.00;99.90;;;;;;5092790;28;20176;-70
2022/11/27 06:03:30;;;;;;;6.20;3.53;;;8.00;99.90;;;;;;5092649;28;20177;-70
2022/11/27 06:05:56;;;;;;;7.03;3.47;;;8.10;99.90;;;;;;5092570;28;20172;-70
2022/11/27 06:08:22;;;;;;;5.47;3.60;;;8.10;99.90;;;;;;5094974;28;20168;-70
2022/11/27 06:10:48;;;;;;;7.13;4.43;;;8.10;99.90;;;;;;5078341;28;20175;-69
2022/11/27 06:13:14;;;;;;;7.37;4.00;;;8.10;99.90;;;;;;5095840;28;20206;-70
2022/11/27 06:15:40;;;;;;;7.50;4.27;;;8.10;99.90;;;;;;5077558;28;20703;-69
2022/11/27 06:18:06;;;;;;;7.50;3.80;;;8.10;99.90;;;;;;5096431;28;20164;-70
2022/11/27 06:20:32;;;;;;;7.50;4.30;;;8.10;99.90;;;;;;5096329;28;20635;-69
2022/11/27 06:22:58;;;;;;;7.97;4.10;;;8.10;99.90;;;;;;5096430;28;20250;-69
2022/11/27 06:25:24;;;;;;;5.90;3.73;;;8.20;99.90;;;;;;5096430;28;20290;-70
2022/11/27 06:27:50;;;;;;;5.47;4.07;;;8.10;99.90;;;;;;5096258;28;20176;-68
2022/11/27 06:30:19;;;;;;;8.90;3.90;;;8.20;99.90;;;;;;5095904;28;20191;-70
2022/11/27 06:32:44;;;;;;;8.57;4.03;;;8.10;99.90;;;;;;5096064;28;20577;-70
2022/11/27 06:35:10;;;;;;;6.03;4.43;;;8.20;99.90;;;;;;5095774;28;20211;-69
2022/11/27 06:37:36;;;;;;;7.10;4.43;;;8.20;99.90;;;;;;5077837;28;20232;-69
2022/11/27 06:40:02;;;;;;;9.37;4.80;;;8.20;99.90;;;;;;5095881;28;20230;-68
2022/11/27 06:42:31;;;;;;;8.50;3.77;;;8.20;99.90;;;;;;5095814;28;20204;-70
2022/11/27 06:44:57;;;;;;;8.83;4.43;;;8.20;99.90;;;;;;5095222;28;20247;-70
2022/11/27 06:47:23;;;;;;;7.90;4.60;;;8.20;99.90;;;;;;5095601;28;20204;-70
2022/11/27 06:49:48;;;;;;;8.57;4.60;;;8.30;99.90;;;;;;5095402;28;20204;-70
2022/11/27 06:52:14;;;;;;;6.47;4.17;;;8.30;99.90;;;;;;5095882;28;20172;-69
2022/11/27 06:54:42;;;;;;;8.10;4.37;;;8.30;99.90;;;;;;5095581;28;20199;-70
2022/11/27 06:57:08;;;;;;;6.90;4.37;;;8.30;99.90;;;;;;5095381;28;20214;-70
2022/11/27 06:59:36;;;;;;;8.10;4.40;;;8.40;99.90;;;;;;5093842;28;20611;-70
2022/11/27 07:02:02;;;;;;;10.47;4.37;;;8.40;99.90;;;;;;5095847;28;20252;-69
2022/11/27 07:04:28;;;;;;;6.73;3.83;;;8.50;99.90;;;;;;5077617;28;20275;-69
2022/11/27 07:06:54;;;;;;;5.00;4.03;;;8.50;99.90;;;;;;5095521;28;20176;-69
2022/11/27 07:09:19;;;;;;;9.70;4.90;;;8.50;99.90;;;;;;5095312;28;20267;-69
2022/11/27 07:11:48;;;;;;;9.07;4.77;;;8.60;99.90;;;;;;5095221;28;20297;-70
2022/11/27 07:14:13;;;;;;;6.93;3.73;;;8.60;99.90;;;;;;5094922;28;20175;-70
2022/11/27 07:16:39;;;;;;;7.77;4.30;;;8.60;99.90;;;;;;5077142;28;20566;-70
2022/11/27 07:19:06;;;;;;;7.33;4.60;;;8.60;99.90;;;;;;5094967;28;20164;-70
2022/11/27 07:21:32;;;;;;;6.90;4.40;;;8.70;99.90;;;;;;5095262;28;20213;-70
2022/11/27 07:24:02;;;;;;;7.07;4.30;;;8.70;99.90;;;;;;5095033;28;20632;-69
2022/11/27 07:26:31;;;;;;;8.63;4.60;;;8.70;99.90;;;;;;5094736;28;20226;-69
2022/11/27 07:28:57;;;;;;;7.00;3.80;;;8.70;99.90;;;;;;5094810;28;20225;-69
2022/11/27 07:31:26;;;;;;;9.63;4.47;;;8.70;99.90;;;;;;5094882;28;20168;-69
2022/11/27 07:33:52;;;;;;;8.60;4.73;;;8.60;99.90;;;;;;5094859;28;20231;-70
2022/11/27 07:36:23;;;;;;;7.20;4.77;;;8.60;99.90;;;;;;5093416;28;20203;-69
2022/11/27 07:38:50;;;;;;;6.57;4.43;;;8.60;99.90;;;;;;5094534;28;20220;-70
2022/11/27 07:41:16;;;;;;;7.73;5.40;;;8.60;99.90;;;;;;5094764;28;20168;-70
2022/11/27 07:43:42;;;;;;;8.53;5.00;;;8.50;99.90;;;;;;5094858;28;20659;-71
2022/11/27 07:46:17;;;;;;;11.53;5.50;;;8.50;99.90;;;;;;5094787;28;20164;-71
2022/11/27 07:48:43;;;;;;;7.73;4.33;;;8.60;99.90;;;;;;5094274;28;20187;-71
2022/11/27 07:51:10;;;;;;;8.37;5.03;;;8.60;99.90;;;;;;5094454;28;20156;-70
2022/11/27 07:53:39;;;;;;;9.30;4.80;;;8.60;99.90;;;;;;5093457;28;20176;-70
2022/11/27 07:56:06;;;;;;;13.13;6.50;;;8.60;99.90;;;;;;5094047;28;20214;-69
2022/11/27 07:58:32;;;;;;;8.97;4.90;;;8.50;99.90;;;;;;5093779;28;20179;-69
2022/11/27 08:00:58;;;;;;;8.03;4.90;;;8.50;99.90;;;;;;5092804;28;20180;-70
2022/11/27 08:03:24;;;;;;;7.47;4.80;;;8.50;99.90;;;;;;5094380;28;20175;-69
2022/11/27 08:05:52;;;;;;;7.37;4.70;;;8.50;99.90;;;;;;5076120;28;20211;-69
2022/11/27 08:08:18;;;;;;;7.80;4.47;;;8.50;99.90;;;;;;5075528;28;20541;-69
2022/11/27 08:10:43;;;;;;;8.17;4.67;;;8.50;99.90;;;;;;5094212;28;20229;-69
2022/11/27 08:13:15;;;;;;;5.63;4.57;;;8.50;99.90;;;;;;5094243;28;20246;-70
2022/11/27 08:15:41;;;;;;;7.37;4.37;;;8.50;99.90;;;;;;5093912;28;20207;-70
2022/11/27 08:18:06;;;;;;;9.77;4.40;;;8.50;99.90;;;;;;5093825;28;20677;-69
2022/11/27 08:20:36;;;;;;;6.83;4.60;;;8.60;99.90;;;;;;5094168;28;20631;-69
2022/11/27 08:23:02;;;;;;;7.23;4.67;;;8.60;99.90;;;;;;5093332;28;20168;-69
2022/11/27 08:25:27;;;;;;;7.23;4.87;;;8.60;99.90;;;;;;5093910;28;20182;-71
2022/11/27 08:27:53;;;;;;;6.53;4.47;;;8.60;99.90;;;;;;5093977;28;20184;-70
2022/11/27 08:30:21;;;;;;;6.90;4.40;;;8.50;99.90;;;;;;5093217;28;20198;-70
2022/11/27 08:32:46;;;;;;;8.80;4.67;;;8.60;99.90;;;;;;5093555;28;20211;-69
2022/11/27 08:35:12;;;;;;;18.73;10.93;;;8.50;99.90;;;;;;5093825;28;20226;-71
2022/11/27 08:37:37;;;;;;;6.13;4.43;;;8.50;99.90;;;;;;5093373;28;20196;-71
2022/11/27 08:40:04;;;;;;;7.03;4.60;;;8.60;99.90;;;;;;5093540;28;20740;-71
2022/11/27 08:42:30;;;;;;;7.07;4.80;;;8.50;99.90;;;;;;5075636;28;20325;-69
2022/11/27 08:44:55;;;;;;;8.40;4.70;;;8.50;99.90;;;;;;5092861;28;20675;-71
2022/11/27 08:47:21;;;;;;;8.20;4.50;;;8.60;99.90;;;;;;5093606;28;20186;-70
2022/11/27 08:49:46;;;;;;;6.60;4.90;;;8.60;99.90;;;;;;5093200;28;20337;-70
2022/11/27 08:52:12;;;;;;;8.07;4.87;;;8.60;99.90;;;;;;5093011;28;20168;-70
2022/11/27 08:54:40;;;;;;;9.97;4.97;;;8.60;99.90;;;;;;5093012;28;20539;-70
2022/11/27 08:57:06;;;;;;;9.23;5.53;;;8.60;99.90;;;;;;5093360;28;20176;-71
2022/11/27 08:59:32;;;;;;;6.07;4.83;;;8.60;99.90;;;;;;5092869;28;20508;-70
2022/11/27 09:02:00;;;;;;;10.67;5.23;;;8.60;99.90;;;;;;5093240;28;20179;-70
2022/11/27 09:04:30;;;;;;;6.50;4.87;;;8.60;99.90;;;;;;5092956;28;20250;-70
2022/11/27 09:06:56;;;;;;;7.40;4.97;;;8.60;99.90;;;;;;5093129;28;20160;-70
2022/11/27 09:09:21;;;;;;;8.03;5.27;;;8.60;99.90;;;;;;5092999;28;20240;-70
2022/11/27 09:11:47;;;;;;;7.50;4.83;;;8.60;99.90;;;;;;5092969;28;20171;-69
2022/11/27 09:14:13;;;;;;;8.17;4.70;;;8.70;99.90;;;;;;5092766;28;20203;-70
2022/11/27 09:16:41;;;;;;;6.60;5.10;;;8.60;99.90;;;;;;5092950;28;20290;-70
2022/11/27 09:19:07;;;;;;;8.90;5.00;;;8.50;99.90;;;;;;5092799;28;20164;-71
2022/11/27 09:21:32;;;;;;;8.37;5.00;;;8.50;99.90;;;;;;5092193;28;20652;-69
2022/11/27 09:24:00;;;;;;;7.97;5.07;;;8.40;99.90;;;;;;5093008;28;20160;-71
2022/11/27 09:26:27;;;;;;;9.30;5.07;;;8.40;99.90;;;;;;5093004;28;20189;-70
2022/11/27 09:28:54;;;;;;;7.43;4.67;;;8.40;99.90;;;;;;5092395;28;20187;-71
2022/11/27 09:31:20;;;;;;;8.00;4.60;;;8.40;99.90;;;;;;5092877;28;20175;-70
2022/11/27 09:33:46;;;;;;;7.93;5.00;;;8.30;99.90;;;;;;5092196;28;20223;-70
2022/11/27 09:36:23;;;;;;;10.27;4.90;;;8.30;99.90;;;;;;5092695;28;20601;-71
2022/11/27 09:38:52;;;;;;;7.23;4.80;;;8.30;99.90;;;;;;5092594;28;20164;-70
2022/11/27 09:41:32;;;;;;;10.53;5.07;;;8.30;99.90;;;;;;5074605;28;20172;-70
2022/11/27 09:44:22;;;;;;;6.50;4.80;;;8.30;99.90;;;;;;5096090;28;20258;-70
2022/11/27 09:46:50;;;;;;;8.17;4.63;;;8.30;99.90;;;;;;5097119;28;20168;-71
2022/11/27 09:49:58;;;;;;;8.70;5.30;;;8.30;99.90;;;;;;5096098;28;20191;-71
2022/11/27 09:52:33;;;;;;;6.73;5.17;;;8.20;99.90;;;;;;4994356;28;20191;-71
2022/11/27 09:55:21;;;;;;;11.37;5.63;;;8.30;99.90;;;;;;4994710;28;20200;-70
2022/11/27 09:58:32;;;;;;;9.87;5.93;;;8.30;99.90;;;;;;4994878;28;20194;-69
2022/11/27 10:01:08;;;;;;;8.80;5.70;;;8.30;99.90;;;;;;4978620;28;20318;-71
2022/11/27 10:03:33;;;;;;;8.30;5.53;;;8.30;99.90;;;;;;4994755;28;20206;-71
2022/11/27 10:06:20;;;;;;;12.40;5.53;;;8.30;99.90;;;;;;4994675;28;20176;-70
2022/11/27 10:09:22;;;;;;;8.33;5.33;;;8.30;99.90;;;;;;4994193;28;20171;-70
2022/11/27 10:12:14;;;;;;;8.20;5.47;;;8.30;99.90;;;;;;4994709;28;20183;-71
2022/11/27 10:15:08;;;;;;;11.23;5.33;;;8.30;99.90;;;;;;4994888;28;20182;-71
2022/11/27 10:17:42;;;;;;;9.50;5.30;;;8.30;99.90;;;;;;4994195;28;20186;-70
2022/11/27 10:20:38;;;;;;;8.37;6.07;;;8.30;99.90;;;;;;4994249;28;20333;-71
2022/11/27 10:23:15;;;;;;;13.07;6.63;;;8.30;99.90;;;;;;4994159;28;20738;-71
2022/11/27 10:25:46;;;;;;;10.70;5.43;;;8.30;99.90;;;;;;4977914;28;20178;-71
2022/11/27 10:28:34;;;;;;;7.67;5.90;;;8.30;99.90;;;;;;5007814;28;20187;-71
2022/11/27 10:31:08;;;;;;;11.30;6.00;;;8.30;99.90;;;;;;5077804;28;20170;-71
2022/11/27 10:33:53;;;;;;;7.77;5.50;;;8.40;99.90;;;;;;5095299;28;20219;-70
2022/11/27 10:36:31;;;;;;;10.03;6.23;;;8.40;99.90;;;;;;5077748;28;20235;-70
2022/11/27 10:38:59;;;;;;;8.97;5.70;;;8.50;99.90;;;;;;5095466;28;20174;-71
2022/11/27 10:41:32;;;;;;;11.73;7.57;;;8.50;99.90;;;;;;5095715;28;20731;-71
2022/11/27 10:44:14;;;;;;;21.77;12.67;;;8.50;99.90;;;;;;5095894;28;20182;-72
2022/11/27 10:46:40;;;;;;;9.03;6.27;;;8.50;99.90;;;;;;5095863;28;20172;-71
2022/11/27 10:49:06;;;;;;;9.67;6.27;;;8.60;99.90;;;;;;5095040;28;20192;-71
2022/11/27 10:51:34;;;;;;;9.73;6.33;;;8.60;99.90;;;;;;5095852;28;20309;-71
2022/11/27 10:54:04;;;;;;;8.57;6.50;;;8.60;99.90;;;;;;5094970;28;20624;-72
2022/11/27 10:56:45;;;;;;;8.97;6.33;;;8.60;99.90;;;;;;5077180;28;20238;-71
2022/11/27 10:59:18;;;;;;;223.27;178.43;;;8.70;99.90;;;;;;5094679;28;20168;-72
2022/11/27 11:01:52;;;;;;;162.80;134.20;;;8.80;99.90;;;;;;5093798;28;20278;-71
2022/11/27 11:04:25;;;;;;;31.37;23.73;;;8.90;99.90;;;;;;5095494;28;20168;-71
2022/11/27 11:06:51;;;;;;;8.73;6.60;;;9.00;99.90;;;;;;5076510;28;20175;-71
2022/11/27 11:09:29;;;;;;;11.77;7.03;;;9.00;99.90;;;;;;5095029;28;20209;-71
2022/11/27 11:12:20;;;;;;;82.27;71.57;;;9.00;99.90;;;;;;5095381;28;20190;-71
2022/11/27 11:14:55;;;;;;;19.33;14.20;;;9.10;99.90;;;;;;5085862;28;20270;-71
2022/11/27 11:17:33;;;;;;;9.27;7.37;;;9.10;99.90;;;;;;5094215;28;20205;-70
2022/11/27 11:19:59;;;;;;;8.77;6.70;;;9.20;99.90;;;;;;5094816;28;20183;-73
2022/11/27 11:22:27;;;;;;;20.20;16.27;;;9.40;99.90;;;;;;5095143;28;20179;-72
2022/11/27 11:24:53;;;;;;;13.47;8.37;;;9.50;99.90;;;;;;5094746;28;20245;-72
2022/11/27 11:27:26;;;;;;;14.97;7.67;;;9.50;99.90;;;;;;5094607;28;20172;-71
2022/11/27 11:30:00;;;;;;;11.20;7.23;;;9.60;99.90;;;;;;5094377;28;20168;-71
2022/11/27 11:32:31;;;;;;;9.83;6.83;;;9.70;99.90;;;;;;5094465;28;20284;-71
2022/11/27 11:35:33;;;;;;;11.27;7.10;;;9.80;99.90;;;;;;5094696;28;20226;-72
2022/11/27 11:38:00;;;;;;;11.00;7.20;;;10.00;99.90;;;;;;4993070;28;20664;-71
2022/11/27 11:40:29;;;;;;;9.97;6.17;;;10.20;99.90;;;;;;4992427;28;20187;-71
2022/11/27 11:43:01;;;;;;;45.87;41.33;;;10.10;99.90;;;;;;4992368;28;20194;-72
2022/11/27 11:45:33;;;;;;;10.93;6.90;;;10.30;99.90;;;;;;4992447;28;20187;-71
2022/11/27 11:48:19;;;;;;;28.23;25.43;;;10.60;99.90;;;;;;4992928;28;20192;-72
2022/11/27 11:50:57;;;;;;;12.37;8.70;;;10.70;99.90;;;;;;4991877;28;20201;-72
2022/11/27 11:53:35;;;;;;;13.77;11.73;;;10.60;99.90;;;;;;4992675;28;20175;-71
2022/11/27 11:56:03;;;;;;;79.37;70.73;;;10.70;99.90;;;;;;4975535;28;20218;-72
2022/11/27 11:58:47;;;;;;;10.60;7.33;;;10.50;99.90;;;;;;4975450;28;20670;-71
2022/11/27 12:01:53;;;;;;;10.57;8.00;;;10.50;99.90;;;;;;4992701;28;20187;-70
2022/11/27 12:04:50;;;;;;;14.30;7.87;;;10.50;99.90;;;;;;4992457;28;20198;-72
2022/11/27 12:07:45;;;;;;;86.57;63.50;;;10.50;99.90;;;;;;4992258;28;20223;-71
2022/11/27 12:10:30;;;;;;;183.40;128.17;;;10.40;99.90;;;;;;4975851;28;20542;-71
2022/11/27 12:13:23;;;;;;;30.53;21.47;;;10.30;99.90;;;;;;5016721;28;20192;-72
2022/11/27 12:15:57;;;;;;;70.83;49.67;;;10.40;99.90;;;;;;5093536;28;20215;-71
2022/11/27 12:18:26;;;;;;;21.93;16.80;;;10.40;99.90;;;;;;5093897;28;20168;-70
2022/11/27 12:21:10;;;;;;;7.87;6.17;;;10.30;99.90;;;;;;5092795;28;20190;-71
2022/11/27 12:23:48;;;;;;;11.63;7.30;;;10.30;99.90;;;;;;5093729;28;20171;-70
2022/11/27 12:26:41;;;;;;;142.13;126.43;;;10.20;99.90;;;;;;5093888;28;20221;-70
2022/11/27 12:29:41;;;;;;;37.50;33.80;;;10.10;99.90;;;;;;5093549;28;20620;-72
2022/11/27 12:32:35;;;;;;;10.53;9.43;;;10.20;99.90;;;;;;5093176;28;20505;-73
2022/11/27 12:35:25;;;;;;;8.80;6.30;;;10.20;99.90;;;;;;5093585;28;20199;-73
2022/11/27 12:38:10;;;;;;;9.97;7.40;;;10.20;99.90;;;;;;5075705;28;20193;-73
2022/11/27 12:40:38;;;;;;;23.80;21.63;;;10.20;99.90;;;;;;5093162;28;20218;-73
2022/11/27 12:43:06;;;;;;;7.57;5.43;;;10.20;99.90;;;;;;5093227;28;20360;-72
2022/11/27 12:45:48;;;;;;;7.67;6.00;;;10.00;99.90;;;;;;5092651;28;20166;-71
2022/11/27 12:48:25;;;;;;;6.63;5.70;;;9.90;99.90;;;;;;5093329;28;20229;-71
2022/11/27 12:50:57;;;;;;;7.23;5.13;;;9.80;99.90;;;;;;5092716;28;20737;-71
2022/11/27 12:53:42;;;;;;;7.03;5.43;;;9.60;99.90;;;;;;5075235;28;20591;-70
2022/11/27 12:56:31;;;;;;;38.10;33.93;;;9.50;99.90;;;;;;5092403;28;20294;-71
2022/11/27 12:59:32;;;;;;;6.83;5.57;;;9.40;99.90;;;;;;5092543;28;20237;-70
2022/11/27 13:02:01;;;;;;;12.83;11.43;;;9.30;99.90;;;;;;5092928;28;20173;-71
2022/11/27 13:04:40;;;;;;;9.07;5.53;;;9.30;99.90;;;;;;5092933;28;20228;-71
2022/11/27 13:07:12;;;;;;;10.07;7.70;;;9.30;99.90;;;;;;5092785;28;20168;-71
2022/11/27 13:10:08;;;;;;;7.67;5.40;;;9.30;99.90;;;;;;5092705;28;20179;-71
2022/11/27 13:12:59;;;;;;;9.50;7.27;;;9.30;99.90;;;;;;5092254;28;20268;-73
2022/11/27 13:15:31;;;;;;;8.47;5.37;;;9.40;99.90;;;;;;5074669;28;20207;-72